sensor_id;sensor_type;location;lat;lon;timestamp;pressure;altitude;pressure_sealevel;temperature;humidity
49947;BME280;35839;48.662;13.300;2022-12-29T05:54:29;97297.50;;;-1.22;100.00
49947;BME280;35839;48.662;13.300;2022-12-29T05:56:55;97278.00;;;-1.27;100.00
49947;BME280;35839;48.662;13.300;2022-12-29T05:59:20;97273.72;;;-1.10;100.00
49947;BME280;35839;48.662;13.300;2022-12-29T06:01:45;97277.56;;;-0.86;100.00
49947;BME280;35839;48.662;13.300;2022-12-29T06:04:10;97258.50;;;-0.81;100.00
49947;BME280;35839;48.662;13.300;2022-12-29T06:06:36;97263.38;;;-0.61;100.00
49947;BME280;35839;48.662;13.300;2022-12-29T06:09:01;97264.72;;;-0.70;100.00
49947;BME280;35839;48.662;13.300;2022-12-29T06:11:26;97271.50;;;-0.69;100.00
49947;BME280;35839;48.662;13.300;2022-12-29T06:13:52;97277.91;;;-0.60;100.00
49947;BME280;35839;48.662;13.300;2022-12-29T06:16:17;97284.06;;;-0.47;100.00
49947;BME280;35839;48.662;13.300;2022-12-29T06:18:42;97285.69;;;-0.46;100.00
49947;BME280;35839;48.662;13.300;2022-12-29T06:21:07;97286.28;;;-0.56;100.00
49947;BME280;35839;48.662;13.300;2022-12-29T06:23:33;97266.53;;;-0.56;100.00
49947;BME280;35839;48.662;13.300;2022-12-29T06:25:58;97261.78;;;-0.48;100.00
49947;BME280;35839;48.662;13.300;2022-12-29T06:28:23;97249.13;;;-0.51;100.00
49947;BME280;35839;48.662;13.300;2022-12-29T06:30:49;97256.31;;;-0.41;100.00
49947;BME280;35839;48.662;13.300;2022-12-29T06:33:14;97260.16;;;-0.49;100.00
49947;BME280;35839;48.662;13.300;2022-12-29T06:35:42;97257.28;;;-0.28;100.00
49947;BME280;35839;48.662;13.300;2022-12-29T06:38:07;97241.91;;;-0.60;100.00
49947;BME280;35839;48.662;13.300;2022-12-29T06:40:33;97264.47;;;-0.65;100.00
49947;BME280;35839;48.662;13.300;2022-12-29T06:42:58;97260.97;;;-0.64;100.00
49947;BME280;35839;48.662;13.300;2022-12-29T06:45:24;97258.16;;;-0.44;100.00
49947;BME280;35839;48.662;13.300;2022-12-29T06:47:49;97263.22;;;-0.12;100.00
49947;BME280;35839;48.662;13.300;2022-12-29T06:50:14;97258.44;;;-0.18;100.00
49947;BME280;35839;48.662;13.300;2022-12-29T06:52:40;97271.38;;;-0.19;100.00
49947;BME280;35839;48.662;13.300;2022-12-29T06:55:05;97271.94;;;-0.14;100.00
49947;BME280;35839;48.662;13.300;2022-12-29T06:57:31;97281.84;;;-0.23;100.00
49947;BME280;35839;48.662;13.300;2022-12-29T06:59:56;97276.41;;;-0.32;100.00
49947;BME280;35839;48.662;13.300;2022-12-29T07:02:22;97275.88;;;-0.23;100.00
49947;BME280;35839;48.662;13.300;2022-12-29T07:04:47;97265.78;;;-0.12;100.00
49947;BME280;35839;48.662;13.300;2022-12-29T07:07:12;97277.94;;;-0.14;100.00
49947;BME280;35839;48.662;13.300;2022-12-29T07:09:38;97291.47;;;-0.26;100.00
49947;BME280;35839;48.662;13.300;2022-12-29T07:12:03;97285.25;;;-0.22;100.00
49947;BME280;35839;48.662;13.300;2022-12-29T07:14:28;97296.47;;;-0.23;100.00
49947;BME280;35839;48.662;13.300;2022-12-29T07:16:54;97289.00;;;-0.28;100.00
49947;BME280;35839;48.662;13.300;2022-12-29T07:19:19;97272.06;;;-0.16;100.00
49947;BME280;35839;48.662;13.300;2022-12-29T07:21:45;97265.75;;;0.04;100.00
49947;BME280;35839;48.662;13.300;2022-12-29T07:24:10;97276.97;;;0.03;100.00
49947;BME280;35839;48.662;13.300;2022-12-29T07:26:36;97280.13;;;0.08;100.00
49947;BME280;35839;48.662;13.300;2022-12-29T07:29:02;97278.72;;;0.03;100.00
49947;BME280;35839;48.662;13.300;2022-12-29T07:31:28;97287.03;;;0.08;100.00
49947;BME280;35839;48.662;13.300;2022-12-29T07:33:54;97275.41;;;0.01;100.00
49947;BME280;35839;48.662;13.300;2022-12-29T07:36:19;97290.06;;;0.14;100.00
49947;BME280;35839;48.662;13.300;2022-12-29T07:38:44;97290.63;;;0.19;100.00
49947;BME280;35839;48.662;13.300;2022-12-29T07:41:10;97280.03;;;0.40;100.00
49947;BME280;35839;48.662;13.300;2022-12-29T07:43:35;97298.69;;;0.44;100.00
49947;BME280;35839;48.662;13.300;2022-12-29T07:46:00;97309.09;;;0.42;100.00
49947;BME280;35839;48.662;13.300;2022-12-29T07:48:26;97302.72;;;0.33;100.00
49947;BME280;35839;48.662;13.300;2022-12-29T07:50:52;97304.47;;;0.33;100.00
49947;BME280;35839;48.662;13.300;2022-12-29T07:53:18;97302.31;;;0.25;100.00
49947;BME280;35839;48.662;13.300;2022-12-29T07:55:43;97301.03;;;0.32;100.00
49947;BME280;35839;48.662;13.300;2022-12-29T07:58:09;97307.22;;;0.44;100.00
49947;BME280;35839;48.662;13.300;2022-12-29T08:00:34;97306.00;;;0.21;100.00
49947;BME280;35839;48.662;13.300;2022-12-29T08:03:00;97308.94;;;0.15;100.00
49947;BME280;35839;48.662;13.300;2022-12-29T08:05:25;97294.81;;;0.06;100.00
49947;BME280;35839;48.662;13.300;2022-12-29T08:07:51;97310.34;;;0.05;100.00
49947;BME280;35839;48.662;13.300;2022-12-29T08:10:16;97336.91;;;0.21;100.00
49947;BME280;35839;48.662;13.300;2022-12-29T08:12:42;97320.78;;;0.48;100.00
49947;BME280;35839;48.662;13.300;2022-12-29T08:15:10;97328.22;;;0.38;100.00
49947;BME280;35839;48.662;13.300;2022-12-29T08:17:36;97333.94;;;0.57;100.00
49947;BME280;35839;48.662;13.300;2022-12-29T08:20:02;97325.19;;;0.46;100.00
49947;BME280;35839;48.662;13.300;2022-12-29T08:22:27;97317.66;;;0.57;100.00
49947;BME280;35839;48.662;13.300;2022-12-29T08:24:53;97326.16;;;0.59;100.00
49947;BME280;35839;48.662;13.300;2022-12-29T08:27:18;97324.19;;;0.48;100.00
49947;BME280;35839;48.662;13.300;2022-12-29T08:29:43;97318.19;;;0.48;100.00
49947;BME280;35839;48.662;13.300;2022-12-29T08:32:09;97324.66;;;0.55;100.00
49947;BME280;35839;48.662;13.300;2022-12-29T08:34:35;97311.44;;;0.90;100.00
49947;BME280;35839;48.662;13.300;2022-12-29T08:37:00;97324.88;;;0.80;100.00
49947;BME280;35839;48.662;13.300;2022-12-29T08:39:25;97321.28;;;0.83;100.00
49947;BME280;35839;48.662;13.300;2022-12-29T08:41:51;97327.25;;;0.83;100.00
49947;BME280;35839;48.662;13.300;2022-12-29T08:44:16;97330.97;;;0.79;100.00
49947;BME280;35839;48.662;13.300;2022-12-29T08:46:41;97321.47;;;0.94;100.00
49947;BME280;35839;48.662;13.300;2022-12-29T08:49:07;97303.34;;;0.96;100.00
49947;BME280;35839;48.662;13.300;2022-12-29T08:51:32;97326.09;;;1.03;100.00
49947;BME280;35839;48.662;13.300;2022-12-29T08:53:58;97326.00;;;1.05;100.00
49947;BME280;35839;48.662;13.300;2022-12-29T08:56:24;97324.16;;;1.21;100.00
49947;BME280;35839;48.662;13.300;2022-12-29T08:58:50;97320.72;;;1.07;100.00
49947;BME280;35839;48.662;13.300;2022-12-29T09:01:15;97296.91;;;1.03;100.00
49947;BME280;35839;48.662;13.300;2022-12-29T09:03:41;97306.09;;;1.21;100.00
49947;BME280;35839;48.662;13.300;2022-12-29T09:06:06;97296.69;;;1.20;100.00
49947;BME280;35839;48.662;13.300;2022-12-29T09:08:32;97301.22;;;1.17;100.00
49947;BME280;35839;48.662;13.300;2022-12-29T09:11:13;97309.94;;;1.29;100.00
49947;BME280;35839;48.662;13.300;2022-12-29T09:13:39;97301.53;;;1.39;100.00
49947;BME280;35839;48.662;13.300;2022-12-29T09:16:05;97299.06;;;1.38;100.00
49947;BME280;35839;48.662;13.300;2022-12-29T09:18:31;97285.88;;;1.42;100.00
49947;BME280;35839;48.662;13.300;2022-12-29T09:20:57;97305.09;;;1.51;100.00
49947;BME280;35839;48.662;13.300;2022-12-29T09:23:23;97314.13;;;1.58;100.00
49947;BME280;35839;48.662;13.300;2022-12-29T09:25:48;97319.31;;;1.44;100.00
49947;BME280;35839;48.662;13.300;2022-12-29T09:28:14;97322.88;;;1.56;100.00
49947;BME280;35839;48.662;13.300;2022-12-29T09:30:39;97322.44;;;1.63;100.00
49947;BME280;35839;48.662;13.300;2022-12-29T09:33:04;97328.38;;;1.78;100.00
49947;BME280;35839;48.662;13.300;2022-12-29T09:35:30;97326.28;;;1.71;100.00
49947;BME280;35839;48.662;13.300;2022-12-29T09:37:55;97330.44;;;1.86;100.00
49947;BME280;35839;48.662;13.300;2022-12-29T09:40:31;97322.34;;;1.92;100.00
49947;BME280;35839;48.662;13.300;2022-12-29T09:45:44;97306.63;;;1.95;100.00
49947;BME280;35839;48.662;13.300;2022-12-29T09:48:21;97293.34;;;2.01;100.00
49947;BME280;35839;48.662;13.300;2022-12-29T09:50:53;97303.97;;;2.09;100.00
49947;BME280;35839;48.662;13.300;2022-12-29T09:53:29;97312.81;;;2.20;100.00
49947;BME280;35839;48.662;13.300;2022-12-29T09:55:58;97305.38;;;2.28;100.00
49947;BME280;35839;48.662;13.300;2022-12-29T10:01:36;97290.50;;;2.44;100.00
49947;BME280;35839;48.662;13.300;2022-12-29T10:04:05;97296.53;;;2.58;100.00
49947;BME280;35839;48.662;13.300;2022-12-29T10:06:55;97296.94;;;2.77;100.00
49947;BME280;35839;48.662;13.300;2022-12-29T10:09:41;97299.63;;;2.88;100.00
49947;BME280;35839;48.662;13.300;2022-12-29T10:12:16;97297.25;;;2.85;100.00
49947;BME280;35839;48.662;13.300;2022-12-29T10:15:20;97284.09;;;3.14;100.00
49947;BME280;35839;48.662;13.300;2022-12-29T10:18:18;97280.69;;;3.01;100.00
49947;BME280;35839;48.662;13.300;2022-12-29T10:20:52;97285.31;;;3.21;100.00
49947;BME280;35839;48.662;13.300;2022-12-29T10:23:27;97279.50;;;3.30;100.00
49947;BME280;35839;48.662;13.300;2022-12-29T10:25:59;97276.91;;;3.30;100.00
49947;BME280;35839;48.662;13.300;2022-12-29T10:31:45;97280.13;;;3.21;100.00
49947;BME280;35839;48.662;13.300;2022-12-29T10:34:20;97275.53;;;3.37;100.00
49947;BME280;35839;48.662;13.300;2022-12-29T10:36:49;97273.69;;;3.40;100.00
49947;BME280;35839;48.662;13.300;2022-12-29T10:39:33;97276.75;;;3.45;100.00
49947;BME280;35839;48.662;13.300;2022-12-29T10:42:25;97271.94;;;3.64;100.00
49947;BME280;35839;48.662;13.300;2022-12-29T10:44:51;97268.53;;;3.88;100.00
49947;BME280;35839;48.662;13.300;2022-12-29T10:47:19;97266.19;;;3.96;100.00
49947;BME280;35839;48.662;13.300;2022-12-29T10:49:47;97264.81;;;4.03;100.00
49947;BME280;35839;48.662;13.300;2022-12-29T10:52:15;97264.22;;;4.35;100.00
49947;BME280;35839;48.662;13.300;2022-12-29T10:54:52;97253.84;;;4.35;100.00
49947;BME280;35839;48.662;13.300;2022-12-29T10:57:31;97254.34;;;4.51;100.00
49947;BME280;35839;48.662;13.300;2022-12-29T10:59:58;97260.50;;;4.73;100.00
49947;BME280;35839;48.662;13.300;2022-12-29T11:02:37;97250.25;;;4.82;100.00
49947;BME280;35839;48.662;13.300;2022-12-29T11:08:03;97247.06;;;4.68;100.00
49947;BME280;35839;48.662;13.300;2022-12-29T11:13:01;97234.88;;;4.57;100.00
49947;BME280;35839;48.662;13.300;2022-12-29T11:15:27;97237.13;;;4.61;100.00
49947;BME280;35839;48.662;13.300;2022-12-29T11:17:57;97237.84;;;4.63;100.00
49947;BME280;35839;48.662;13.300;2022-12-29T11:20:35;97223.97;;;4.64;100.00
49947;BME280;35839;48.662;13.300;2022-12-29T11:23:03;97219.84;;;4.73;100.00
49947;BME280;35839;48.662;13.300;2022-12-29T11:25:29;97210.75;;;4.79;100.00
49947;BME280;35839;48.662;13.300;2022-12-29T11:28:01;97212.19;;;4.83;100.00
49947;BME280;35839;48.662;13.300;2022-12-29T11:30:29;97212.88;;;4.85;100.00
49947;BME280;35839;48.662;13.300;2022-12-29T11:32:55;97198.59;;;4.91;100.00
49947;BME280;35839;48.662;13.300;2022-12-29T11:35:36;97202.97;;;4.90;100.00
49947;BME280;35839;48.662;13.300;2022-12-29T11:38:04;97208.88;;;4.92;100.00
49947;BME280;35839;48.662;13.300;2022-12-29T11:40:30;97211.22;;;5.06;100.00
49947;BME280;35839;48.662;13.300;2022-12-29T11:43:03;97210.16;;;5.09;100.00
49947;BME280;35839;48.662;13.300;2022-12-29T11:45:33;97199.28;;;5.15;100.00
49947;BME280;35839;48.662;13.300;2022-12-29T11:48:01;97194.91;;;5.27;100.00
49947;BME280;35839;48.662;13.300;2022-12-29T11:50:33;97202.13;;;5.56;100.00
49947;BME280;35839;48.662;13.300;2022-12-29T11:53:03;97195.88;;;5.58;100.00
49947;BME280;35839;48.662;13.300;2022-12-29T11:55:30;97197.38;;;5.61;100.00
49947;BME280;35839;48.662;13.300;2022-12-29T11:57:59;97187.63;;;5.53;100.00
49947;BME280;35839;48.662;13.300;2022-12-29T12:00:27;97189.59;;;5.61;100.00
49947;BME280;35839;48.662;13.300;2022-12-29T12:03:02;97189.84;;;5.58;100.00
49947;BME280;35839;48.662;13.300;2022-12-29T12:05:35;97187.63;;;5.85;100.00
49947;BME280;35839;48.662;13.300;2022-12-29T12:10:48;97181.84;;;5.82;100.00
49947;BME280;35839;48.662;13.300;2022-12-29T12:13:34;97173.94;;;5.83;100.00
49947;BME280;35839;48.662;13.300;2022-12-29T12:16:08;97175.06;;;5.90;100.00
49947;BME280;35839;48.662;13.300;2022-12-29T12:19:02;97180.00;;;5.94;100.00
49947;BME280;35839;48.662;13.300;2022-12-29T12:21:37;97175.97;;;6.01;100.00
49947;BME280;35839;48.662;13.300;2022-12-29T12:27:01;97170.03;;;6.10;100.00
49947;BME280;35839;48.662;13.300;2022-12-29T12:29:44;97164.59;;;6.13;100.00
49947;BME280;35839;48.662;13.300;2022-12-29T12:32:17;97171.31;;;6.16;100.00
49947;BME280;35839;48.662;13.300;2022-12-29T12:34:46;97168.81;;;6.14;100.00
49947;BME280;35839;48.662;13.300;2022-12-29T12:37:41;97168.88;;;6.24;100.00
49947;BME280;35839;48.662;13.300;2022-12-29T12:40:24;97155.94;;;6.33;100.00
49947;BME280;35839;48.662;13.300;2022-12-29T12:43:28;97160.00;;;6.05;100.00
49947;BME280;35839;48.662;13.300;2022-12-29T12:46:42;97163.88;;;6.11;100.00
49947;BME280;35839;48.662;13.300;2022-12-29T12:49:40;97164.00;;;6.09;100.00
49947;BME280;35839;48.662;13.300;2022-12-29T12:52:42;97158.22;;;6.27;100.00
49947;BME280;35839;48.662;13.300;2022-12-29T12:58:14;97156.34;;;6.39;100.00
49947;BME280;35839;48.662;13.300;2022-12-29T13:00:53;97158.41;;;6.35;100.00
49947;BME280;35839;48.662;13.300;2022-12-29T13:09:04;97153.28;;;6.24;100.00
49947;BME280;35839;48.662;13.300;2022-12-29T13:11:54;97149.94;;;6.12;100.00
49947;BME280;35839;48.662;13.300;2022-12-29T13:14:38;97139.41;;;6.14;100.00
49947;BME280;35839;48.662;13.300;2022-12-29T13:17:21;97130.09;;;6.11;100.00
49947;BME280;35839;48.662;13.300;2022-12-29T13:20:05;97131.22;;;6.18;100.00
49947;BME280;35839;48.662;13.300;2022-12-29T13:23:22;97135.66;;;6.27;100.00
49947;BME280;35839;48.662;13.300;2022-12-29T13:25:36;97136.00;;;6.13;100.00
49947;BME280;35839;48.662;13.300;2022-12-29T13:28:31;97135.72;;;6.16;100.00
49947;BME280;35839;48.662;13.300;2022-12-29T13:31:16;97131.59;;;6.35;100.00
49947;BME280;35839;48.662;13.300;2022-12-29T13:33:58;97132.75;;;6.21;100.00
49947;BME280;35839;48.662;13.300;2022-12-29T13:36:30;97138.97;;;6.29;100.00
49947;BME280;35839;48.662;13.300;2022-12-29T13:39:10;97131.00;;;6.31;100.00
49947;BME280;35839;48.662;13.300;2022-12-29T13:41:43;97137.78;;;6.22;100.00
49947;BME280;35839;48.662;13.300;2022-12-29T13:44:17;97147.06;;;6.15;100.00
49947;BME280;35839;48.662;13.300;2022-12-29T13:46:46;97134.31;;;6.33;100.00
49947;BME280;35839;48.662;13.300;2022-12-29T13:49:22;97146.13;;;6.16;100.00
49947;BME280;35839;48.662;13.300;2022-12-29T13:51:56;97149.34;;;6.29;100.00
49947;BME280;35839;48.662;13.300;2022-12-29T13:54:29;97153.97;;;6.26;100.00
49947;BME280;35839;48.662;13.300;2022-12-29T13:57:30;97156.31;;;6.08;100.00
49947;BME280;35839;48.662;13.300;2022-12-29T14:04:59;97156.03;;;5.69;100.00
49947;BME280;35839;48.662;13.300;2022-12-29T14:07:25;97167.19;;;5.60;100.00
49947;BME280;35839;48.662;13.300;2022-12-29T14:09:53;97161.72;;;5.63;100.00
49947;BME280;35839;48.662;13.300;2022-12-29T14:17:35;97161.31;;;5.79;100.00
49947;BME280;35839;48.662;13.300;2022-12-29T14:20:01;97160.88;;;5.74;100.00
49947;BME280;35839;48.662;13.300;2022-12-29T14:22:28;97155.75;;;5.51;100.00
49947;BME280;35839;48.662;13.300;2022-12-29T14:24:53;97157.13;;;5.34;100.00
49947;BME280;35839;48.662;13.300;2022-12-29T14:29:46;97162.69;;;5.18;100.00
49947;BME280;35839;48.662;13.300;2022-12-29T14:32:37;97167.28;;;5.15;100.00
49947;BME280;35839;48.662;13.300;2022-12-29T14:35:37;97163.81;;;4.93;100.00
49947;BME280;35839;48.662;13.300;2022-12-29T14:38:07;97167.09;;;4.95;100.00
49947;BME280;35839;48.662;13.300;2022-12-29T14:40:39;97163.69;;;5.06;100.00
49947;BME280;35839;48.662;13.300;2022-12-29T14:43:12;97166.75;;;5.00;100.00
49947;BME280;35839;48.662;13.300;2022-12-29T14:45:41;97158.84;;;5.01;100.00
49947;BME280;35839;48.662;13.300;2022-12-29T14:48:42;97157.81;;;4.93;100.00
49947;BME280;35839;48.662;13.300;2022-12-29T14:51:29;97157.69;;;4.83;100.00
49947;BME280;35839;48.662;13.300;2022-12-29T14:53:56;97150.47;;;4.86;100.00
49947;BME280;35839;48.662;13.300;2022-12-29T14:56:27;97155.66;;;4.86;100.00
49947;BME280;35839;48.662;13.300;2022-12-29T14:58:56;97147.53;;;4.80;100.00
49947;BME280;35839;48.662;13.300;2022-12-29T15:01:38;97150.75;;;4.72;100.00
49947;BME280;35839;48.662;13.300;2022-12-29T15:04:20;97146.94;;;4.99;100.00
49947;BME280;35839;48.662;13.300;2022-12-29T15:06:48;97144.13;;;4.91;100.00
49947;BME280;35839;48.662;13.300;2022-12-29T15:09:33;97146.63;;;4.81;100.00
49947;BME280;35839;48.662;13.300;2022-12-29T15:14:52;97156.28;;;4.56;100.00
49947;BME280;35839;48.662;13.300;2022-12-29T15:17:28;97147.69;;;4.44;100.00
49947;BME280;35839;48.662;13.300;2022-12-29T15:19:55;97150.16;;;4.57;100.00
49947;BME280;35839;48.662;13.300;2022-12-29T15:22:22;97149.81;;;4.39;100.00
49947;BME280;35839;48.662;13.300;2022-12-29T15:24:50;97158.25;;;4.19;100.00
49947;BME280;35839;48.662;13.300;2022-12-29T15:27:20;97150.38;;;4.20;100.00
49947;BME280;35839;48.662;13.300;2022-12-29T15:29:46;97157.44;;;4.18;100.00
49947;BME280;35839;48.662;13.300;2022-12-29T15:32:29;97156.25;;;4.11;100.00
49947;BME280;35839;48.662;13.300;2022-12-29T15:34:56;97147.31;;;4.15;100.00
49947;BME280;35839;48.662;13.300;2022-12-29T15:37:27;97147.41;;;4.14;100.00
49947;BME280;35839;48.662;13.300;2022-12-29T15:39:54;97138.56;;;4.05;100.00
49947;BME280;35839;48.662;13.300;2022-12-29T15:42:32;97141.06;;;4.07;100.00
49947;BME280;35839;48.662;13.300;2022-12-29T15:45:04;97145.25;;;3.85;100.00
49947;BME280;35839;48.662;13.300;2022-12-29T15:47:30;97149.00;;;3.81;100.00
49947;BME280;35839;48.662;13.300;2022-12-29T15:50:05;97141.44;;;3.67;100.00
49947;BME280;35839;48.662;13.300;2022-12-29T15:52:32;97158.94;;;3.63;100.00
49947;BME280;35839;48.662;13.300;2022-12-29T15:54:59;97156.28;;;3.41;100.00
49947;BME280;35839;48.662;13.300;2022-12-29T15:57:27;97162.78;;;3.22;100.00
49947;BME280;35839;48.662;13.300;2022-12-29T15:59:54;97159.47;;;3.20;100.00
49947;BME280;35839;48.662;13.300;2022-12-29T16:02:21;97165.06;;;3.14;100.00
49947;BME280;35839;48.662;13.300;2022-12-29T16:04:48;97166.63;;;3.41;100.00
49947;BME280;35839;48.662;13.300;2022-12-29T16:07:26;97166.44;;;3.31;100.00
49947;BME280;35839;48.662;13.300;2022-12-29T16:09:57;97172.41;;;3.44;100.00
49947;BME280;35839;48.662;13.300;2022-12-29T16:12:26;97168.66;;;3.48;100.00
49947;BME280;35839;48.662;13.300;2022-12-29T16:14:57;97167.31;;;3.43;100.00
49947;BME280;35839;48.662;13.300;2022-12-29T16:17:27;97176.69;;;3.32;100.00
49947;BME280;35839;48.662;13.300;2022-12-29T16:20:00;97175.88;;;3.08;100.00
49947;BME280;35839;48.662;13.300;2022-12-29T16:22:32;97178.22;;;2.74;100.00
49947;BME280;35839;48.662;13.300;2022-12-29T16:25:04;97178.13;;;2.63;100.00
49947;BME280;35839;48.662;13.300;2022-12-29T16:27:36;97180.72;;;2.63;100.00
49947;BME280;35839;48.662;13.300;2022-12-29T16:30:16;97190.19;;;2.75;100.00
49947;BME280;35839;48.662;13.300;2022-12-29T16:32:50;97187.56;;;3.01;100.00
49947;BME280;35839;48.662;13.300;2022-12-29T16:35:24;97186.88;;;2.99;100.00
49947;BME280;35839;48.662;13.300;2022-12-29T16:38:16;97197.84;;;2.89;100.00
49947;BME280;35839;48.662;13.300;2022-12-29T16:40:52;97191.56;;;2.81;100.00
49947;BME280;35839;48.662;13.300;2022-12-29T16:43:24;97185.88;;;2.63;100.00
49947;BME280;35839;48.662;13.300;2022-12-29T16:48:20;97189.72;;;2.44;100.00
49947;BME280;35839;48.662;13.300;2022-12-29T16:50:46;97184.44;;;2.33;100.00
49947;BME280;35839;48.662;13.300;2022-12-29T16:53:27;97174.56;;;2.27;100.00
49947;BME280;35839;48.662;13.300;2022-12-29T16:55:53;97182.59;;;2.35;100.00
49947;BME280;35839;48.662;13.300;2022-12-29T16:58:22;97167.00;;;2.49;100.00
49947;BME280;35839;48.662;13.300;2022-12-29T17:00:49;97173.78;;;2.76;100.00
49947;BME280;35839;48.662;13.300;2022-12-29T17:03:15;97185.19;;;2.98;100.00
49947;BME280;35839;48.662;13.300;2022-12-29T17:05:40;97178.13;;;2.76;100.00
49947;BME280;35839;48.662;13.300;2022-12-29T17:08:20;97177.94;;;2.66;100.00
49947;BME280;35839;48.662;13.300;2022-12-29T17:10:51;97176.34;;;2.76;100.00
49947;BME280;35839;48.662;13.300;2022-12-29T17:13:36;97169.97;;;2.69;100.00
49947;BME280;35839;48.662;13.300;2022-12-29T17:16:02;97176.91;;;2.68;100.00
49947;BME280;35839;48.662;13.300;2022-12-29T17:18:27;97176.16;;;2.66;100.00
49947;BME280;35839;48.662;13.300;2022-12-29T17:20:53;97181.97;;;2.44;100.00
49947;BME280;35839;48.662;13.300;2022-12-29T17:23:18;97179.09;;;2.36;100.00
49947;BME280;35839;48.662;13.300;2022-12-29T17:25:43;97178.03;;;2.51;100.00
49947;BME280;35839;48.662;13.300;2022-12-29T17:28:27;97177.66;;;2.32;100.00
49947;BME280;35839;48.662;13.300;2022-12-29T17:30:59;97195.09;;;2.28;100.00
49947;BME280;35839;48.662;13.300;2022-12-29T17:33:26;97185.69;;;2.27;100.00
49947;BME280;35839;48.662;13.300;2022-12-29T17:35:53;97191.69;;;2.28;100.00
49947;BME280;35839;48.662;13.300;2022-12-29T17:38:30;97194.78;;;2.07;100.00
49947;BME280;35839;48.662;13.300;2022-12-29T17:40:56;97201.72;;;2.20;100.00
49947;BME280;35839;48.662;13.300;2022-12-29T17:43:22;97195.94;;;2.29;100.00
49947;BME280;35839;48.662;13.300;2022-12-29T17:45:56;97208.97;;;2.27;100.00
49947;BME280;35839;48.662;13.300;2022-12-29T17:48:22;97209.47;;;2.32;100.00
49947;BME280;35839;48.662;13.300;2022-12-29T17:50:49;97204.72;;;2.52;100.00
49947;BME280;35839;48.662;13.300;2022-12-29T17:53:18;97207.91;;;2.56;100.00
49947;BME280;35839;48.662;13.300;2022-12-29T17:55:44;97210.94;;;2.49;100.00
49947;BME280;35839;48.662;13.300;2022-12-29T17:58:21;97201.22;;;2.66;100.00
49947;BME280;35839;48.662;13.300;2022-12-29T18:00:49;97207.06;;;2.68;100.00
49947;BME280;35839;48.662;13.300;2022-12-29T18:03:17;97213.41;;;2.64;100.00
49947;BME280;35839;48.662;13.300;2022-12-29T18:05:43;97221.03;;;2.65;100.00
49947;BME280;35839;48.662;13.300;2022-12-29T18:08:09;97223.63;;;2.27;100.00
49947;BME280;35839;48.662;13.300;2022-12-29T18:10:36;97213.59;;;2.22;100.00
49947;BME280;35839;48.662;13.300;2022-12-29T18:13:02;97210.09;;;2.49;100.00
49947;BME280;35839;48.662;13.300;2022-12-29T18:15:29;97206.16;;;2.18;100.00
49947;BME280;35839;48.662;13.300;2022-12-29T18:17:59;97190.25;;;2.37;100.00
49947;BME280;35839;48.662;13.300;2022-12-29T18:20:29;97172.03;;;2.64;100.00
49947;BME280;35839;48.662;13.300;2022-12-29T18:22:55;97178.78;;;2.28;100.00
49947;BME280;35839;48.662;13.300;2022-12-29T18:25:25;97183.22;;;2.26;100.00
49947;BME280;35839;48.662;13.300;2022-12-29T18:27:51;97178.06;;;2.13;100.00
49947;BME280;35839;48.662;13.300;2022-12-29T18:30:17;97182.81;;;2.06;100.00
49947;BME280;35839;48.662;13.300;2022-12-29T18:32:42;97180.44;;;2.03;100.00
49947;BME280;35839;48.662;13.300;2022-12-29T18:35:38;97186.72;;;2.12;100.00
49947;BME280;35839;48.662;13.300;2022-12-29T18:38:04;97171.81;;;2.54;100.00
49947;BME280;35839;48.662;13.300;2022-12-29T18:40:32;97179.81;;;2.51;100.00
49947;BME280;35839;48.662;13.300;2022-12-29T18:42:58;97177.97;;;2.40;100.00
49947;BME280;35839;48.662;13.300;2022-12-29T18:45:23;97179.09;;;2.36;100.00
49947;BME280;35839;48.662;13.300;2022-12-29T18:47:49;97184.44;;;2.33;100.00
49947;BME280;35839;48.662;13.300;2022-12-29T18:50:15;97178.03;;;2.51;100.00
49947;BME280;35839;48.662;13.300;2022-12-29T18:52:41;97175.78;;;2.34;100.00
49947;BME280;35839;48.662;13.300;2022-12-29T18:55:16;97173.31;;;2.20;100.00
49947;BME280;35839;48.662;13.300;2022-12-29T18:57:42;97179.28;;;2.07;100.00
49947;BME280;35839;48.662;13.300;2022-12-29T19:00:08;97168.63;;;2.12;100.00
49947;BME280;35839;48.662;13.300;2022-12-29T19:02:34;97167.94;;;2.23;100.00
49947;BME280;35839;48.662;13.300;2022-12-29T19:04:59;97164.63;;;2.21;100.00
49947;BME280;35839;48.662;13.300;2022-12-29T19:07:25;97157.00;;;2.19;100.00
49947;BME280;35839;48.662;13.300;2022-12-29T19:09:51;97165.03;;;2.02;100.00
49947;BME280;35839;48.662;13.300;2022-12-29T19:12:17;97166.78;;;2.01;100.00
49947;BME280;35839;48.662;13.300;2022-12-29T19:14:43;97170.66;;;1.68;100.00
49947;BME280;35839;48.662;13.300;2022-12-29T19:17:12;97178.84;;;1.88;100.00
49947;BME280;35839;48.662;13.300;2022-12-29T19:19:38;97184.88;;;2.01;100.00
49947;BME280;35839;48.662;13.300;2022-12-29T19:22:03;97182.81;;;2.06;100.00
49947;BME280;35839;48.662;13.300;2022-12-29T19:24:29;97193.47;;;1.75;100.00
49947;BME280;35839;48.662;13.300;2022-12-29T19:26:54;97196.13;;;1.60;100.00
49947;BME280;35839;48.662;13.300;2022-12-29T19:29:19;97198.41;;;1.52;100.00
49947;BME280;35839;48.662;13.300;2022-12-29T19:31:44;97194.59;;;1.31;100.00
49947;BME280;35839;48.662;13.300;2022-12-29T19:34:14;97200.75;;;1.28;100.00
49947;BME280;35839;48.662;13.300;2022-12-29T19:36:40;97197.56;;;1.24;100.00
49947;BME280;35839;48.662;13.300;2022-12-29T19:39:06;97196.03;;;1.35;100.00
49947;BME280;35839;48.662;13.300;2022-12-29T19:41:31;97199.13;;;1.54;100.00
49947;BME280;35839;48.662;13.300;2022-12-29T19:43:57;97203.16;;;1.58;100.00
49947;BME280;35839;48.662;13.300;2022-12-29T19:46:22;97197.66;;;1.90;100.00